sensor_id;sensor_type;location;lat;lon;timestamp;pressure;altitude;pressure_sealevel;temperature;humidity
13767;BME280;47980;48.794;9.176;2024-03-02T00:02:09;97092.34;;;8.10;92.14
13767;BME280;47980;48.794;9.176;2024-03-02T00:04:44;97100.25;;;8.10;92.56
13767;BME280;47980;48.794;9.176;2024-03-02T00:07:15;97099.91;;;8.11;92.88
13767;BME280;47980;48.794;9.176;2024-03-02T00:09:47;97103.97;;;8.09;91.67
13767;BME280;47980;48.794;9.176;2024-03-02T00:12:18;97097.81;;;8.05;92.81
13767;BME280;47980;48.794;9.176;2024-03-02T00:14:51;97111.47;;;8.07;91.39
13767;BME280;47980;48.794;9.176;2024-03-02T00:17:24;97102.22;;;8.01;92.98
13767;BME280;47980;48.794;9.176;2024-03-02T00:19:58;97106.66;;;7.96;93.61
13767;BME280;47980;48.794;9.176;2024-03-02T00:22:29;97108.31;;;7.89;94.35
13767;BME280;47980;48.794;9.176;2024-03-02T00:25:01;97110.19;;;7.88;92.93
13767;BME280;47980;48.794;9.176;2024-03-02T00:27:32;97101.56;;;7.91;93.66
13767;BME280;47980;48.794;9.176;2024-03-02T00:30:06;97109.59;;;7.95;93.94
13767;BME280;47980;48.794;9.176;2024-03-02T00:32:58;97107.97;;;7.90;92.81
13767;BME280;47980;48.794;9.176;2024-03-02T00:35:31;97107.53;;;7.88;93.40
13767;BME280;47980;48.794;9.176;2024-03-02T00:38:04;97114.66;;;7.88;93.17
13767;BME280;47980;48.794;9.176;2024-03-02T00:40:36;97118.31;;;7.83;92.78
13767;BME280;47980;48.794;9.176;2024-03-02T00:43:16;97120.53;;;7.81;94.75
13767;BME280;47980;48.794;9.176;2024-03-02T00:45:58;97113.16;;;7.75;95.01
13767;BME280;47980;48.794;9.176;2024-03-02T00:48:29;97113.03;;;7.71;94.83
13767;BME280;47980;48.794;9.176;2024-03-02T00:51:03;97112.91;;;7.80;94.34
13767;BME280;47980;48.794;9.176;2024-03-02T00:53:35;97110.16;;;7.76;94.04
13767;BME280;47980;48.794;9.176;2024-03-02T00:56:09;97108.41;;;7.80;93.21
13767;BME280;47980;48.794;9.176;2024-03-02T00:58:42;97106.88;;;7.79;93.92
13767;BME280;47980;48.794;9.176;2024-03-02T01:01:13;97098.94;;;7.79;92.30
13767;BME280;47980;48.794;9.176;2024-03-02T01:03:46;97103.81;;;7.77;92.15
13767;BME280;47980;48.794;9.176;2024-03-02T01:06:19;97111.72;;;7.77;92.63
13767;BME280;47980;48.794;9.176;2024-03-02T01:08:50;97103.00;;;7.77;93.49
13767;BME280;47980;48.794;9.176;2024-03-02T01:11:22;97107.63;;;7.80;92.98
13767;BME280;47980;48.794;9.176;2024-03-02T01:13:54;97110.63;;;7.78;91.62
13767;BME280;47980;48.794;9.176;2024-03-02T01:16:25;97109.50;;;7.79;93.05
13767;BME280;47980;48.794;9.176;2024-03-02T01:18:57;97108.84;;;7.70;93.38
13767;BME280;47980;48.794;9.176;2024-03-02T01:21:30;97110.94;;;7.77;92.49
13767;BME280;47980;48.794;9.176;2024-03-02T01:24:01;97105.44;;;7.69;93.22
13767;BME280;47980;48.794;9.176;2024-03-02T01:26:33;97107.94;;;7.66;93.73
13767;BME280;47980;48.794;9.176;2024-03-02T01:29:04;97107.63;;;7.67;94.02
13767;BME280;47980;48.794;9.176;2024-03-02T01:31:36;97108.94;;;7.61;93.30
13767;BME280;47980;48.794;9.176;2024-03-02T01:34:07;97102.69;;;7.54;93.80
13767;BME280;47980;48.794;9.176;2024-03-02T01:36:40;97108.19;;;7.48;93.82
13767;BME280;47980;48.794;9.176;2024-03-02T01:39:12;97112.91;;;7.55;91.94
13767;BME280;47980;48.794;9.176;2024-03-02T01:41:44;97111.13;;;7.47;93.56
13767;BME280;47980;48.794;9.176;2024-03-02T01:44:15;97104.31;;;7.46;94.83
13767;BME280;47980;48.794;9.176;2024-03-02T01:46:47;97101.47;;;7.39;94.44
13767;BME280;47980;48.794;9.176;2024-03-02T01:49:18;97109.50;;;7.42;94.57
13767;BME280;47980;48.794;9.176;2024-03-02T01:51:51;97110.59;;;7.41;94.84
13767;BME280;47980;48.794;9.176;2024-03-02T01:54:23;97104.88;;;7.39;94.01
13767;BME280;47980;48.794;9.176;2024-03-02T01:56:54;97100.66;;;7.26;95.35
13767;BME280;47980;48.794;9.176;2024-03-02T01:59:26;97104.72;;;7.23;95.57
13767;BME280;47980;48.794;9.176;2024-03-02T02:01:58;97104.63;;;7.20;95.85
13767;BME280;47980;48.794;9.176;2024-03-02T02:04:29;97096.91;;;7.15;95.43
13767;BME280;47980;48.794;9.176;2024-03-02T02:07:02;97095.34;;;7.02;95.75
13767;BME280;47980;48.794;9.176;2024-03-02T02:09:34;97094.88;;;6.99;97.50
13767;BME280;47980;48.794;9.176;2024-03-02T02:12:05;97091.06;;;7.09;97.11
13767;BME280;47980;48.794;9.176;2024-03-02T02:14:38;97086.13;;;7.08;96.84
13767;BME280;47980;48.794;9.176;2024-03-02T02:17:10;97087.75;;;7.00;95.75
13767;BME280;47980;48.794;9.176;2024-03-02T02:19:41;97094.00;;;6.95;96.73
13767;BME280;47980;48.794;9.176;2024-03-02T02:22:14;97087.72;;;6.88;96.34
13767;BME280;47980;48.794;9.176;2024-03-02T02:24:46;97084.97;;;6.84;97.41
13767;BME280;47980;48.794;9.176;2024-03-02T02:27:17;97088.81;;;6.87;97.71
13767;BME280;47980;48.794;9.176;2024-03-02T02:29:49;97085.19;;;6.79;98.06
13767;BME280;47980;48.794;9.176;2024-03-02T02:32:20;97081.88;;;6.82;97.52
13767;BME280;47980;48.794;9.176;2024-03-02T02:34:52;97070.03;;;6.88;98.49
13767;BME280;47980;48.794;9.176;2024-03-02T02:37:25;97074.19;;;6.77;98.66
13767;BME280;47980;48.794;9.176;2024-03-02T02:39:56;97071.66;;;6.81;99.10
13767;BME280;47980;48.794;9.176;2024-03-02T02:42:28;97071.13;;;6.87;97.76
13767;BME280;47980;48.794;9.176;2024-03-02T02:44:59;97064.22;;;6.83;97.50
13767;BME280;47980;48.794;9.176;2024-03-02T02:47:31;97059.13;;;6.78;97.23
13767;BME280;47980;48.794;9.176;2024-03-02T02:50:07;97056.97;;;6.80;97.30
13767;BME280;47980;48.794;9.176;2024-03-02T02:52:41;97056.44;;;6.86;97.71
13767;BME280;47980;48.794;9.176;2024-03-02T02:55:13;97056.44;;;6.86;97.37
13767;BME280;47980;48.794;9.176;2024-03-02T02:57:45;97055.59;;;6.73;97.30
13767;BME280;47980;48.794;9.176;2024-03-02T03:00:18;97057.63;;;6.56;99.05
13767;BME280;47980;48.794;9.176;2024-03-02T03:02:50;97052.38;;;6.56;98.92
13767;BME280;47980;48.794;9.176;2024-03-02T03:05:21;97060.38;;;6.59;99.07
13767;BME280;47980;48.794;9.176;2024-03-02T03:07:54;97064.13;;;6.58;97.59
13767;BME280;47980;48.794;9.176;2024-03-02T03:10:26;97061.53;;;6.49;97.62
13767;BME280;47980;48.794;9.176;2024-03-02T03:12:58;97055.00;;;6.35;98.84
13767;BME280;47980;48.794;9.176;2024-03-02T03:15:29;97064.47;;;6.36;99.89
13767;BME280;47980;48.794;9.176;2024-03-02T03:18:01;97065.66;;;6.38;100.00
13767;BME280;47980;48.794;9.176;2024-03-02T03:20:33;97069.31;;;6.46;99.98
13767;BME280;47980;48.794;9.176;2024-03-02T03:23:06;97063.13;;;6.50;99.15
13767;BME280;47980;48.794;9.176;2024-03-02T03:25:39;97067.78;;;6.45;100.00
13767;BME280;47980;48.794;9.176;2024-03-02T03:28:10;97058.47;;;6.47;99.17
13767;BME280;47980;48.794;9.176;2024-03-02T03:30:41;97054.09;;;6.51;100.00
13767;BME280;47980;48.794;9.176;2024-03-02T03:33:13;97056.75;;;6.51;100.00
13767;BME280;47980;48.794;9.176;2024-03-02T03:35:44;97059.03;;;6.53;99.47
13767;BME280;47980;48.794;9.176;2024-03-02T03:38:17;97061.25;;;6.51;100.00
13767;BME280;47980;48.794;9.176;2024-03-02T03:40:49;97062.47;;;6.54;100.00
13767;BME280;47980;48.794;9.176;2024-03-02T03:43:21;97061.53;;;6.49;99.72
13767;BME280;47980;48.794;9.176;2024-03-02T03:45:52;97054.88;;;6.52;99.13
13767;BME280;47980;48.794;9.176;2024-03-02T03:48:23;97055.97;;;6.51;99.48
13767;BME280;47980;48.794;9.176;2024-03-02T03:51:00;97060.34;;;6.47;100.00
13767;BME280;47980;48.794;9.176;2024-03-02T03:53:33;97055.34;;;6.54;99.61
13767;BME280;47980;48.794;9.176;2024-03-02T03:56:05;97058.72;;;6.55;99.33
13767;BME280;47980;48.794;9.176;2024-03-02T03:58:37;97056.75;;;6.51;100.00
13767;BME280;47980;48.794;9.176;2024-03-02T04:01:08;97065.28;;;6.27;99.69
13767;BME280;47980;48.794;9.176;2024-03-02T04:03:40;97065.13;;;6.33;99.82
13767;BME280;47980;48.794;9.176;2024-03-02T04:06:11;97064.41;;;6.23;100.00
13767;BME280;47980;48.794;9.176;2024-03-02T04:08:45;97063.97;;;6.21;99.03
13767;BME280;47980;48.794;9.176;2024-03-02T04:11:16;97060.16;;;6.10;100.00
13767;BME280;47980;48.794;9.176;2024-03-02T04:13:48;97067.16;;;6.06;100.00
13767;BME280;47980;48.794;9.176;2024-03-02T04:16:20;97063.75;;;6.06;100.00
13767;BME280;47980;48.794;9.176;2024-03-02T04:18:51;97062.06;;;6.01;100.00
13767;BME280;47980;48.794;9.176;2024-03-02T04:21:23;97063.94;;;5.92;100.00
13767;BME280;47980;48.794;9.176;2024-03-02T04:23:56;97071.09;;;5.91;100.00
13767;BME280;47980;48.794;9.176;2024-03-02T04:26:29;97060.56;;;5.91;100.00
13767;BME280;47980;48.794;9.176;2024-03-02T04:29:00;97052.81;;;5.95;100.00
13767;BME280;47980;48.794;9.176;2024-03-02T04:31:32;97056.47;;;5.82;100.00
13767;BME280;47980;48.794;9.176;2024-03-02T04:34:03;97057.53;;;5.80;100.00
13767;BME280;47980;48.794;9.176;2024-03-02T04:36:35;97053.97;;;5.85;100.00
13767;BME280;47980;48.794;9.176;2024-03-02T04:39:08;97067.56;;;5.87;100.00
13767;BME280;47980;48.794;9.176;2024-03-02T04:41:40;97063.25;;;5.83;100.00
13767;BME280;47980;48.794;9.176;2024-03-02T04:44:12;97057.34;;;5.86;100.00
13767;BME280;47980;48.794;9.176;2024-03-02T04:46:43;97064.22;;;5.78;100.00
13767;BME280;47980;48.794;9.176;2024-03-02T04:49:15;97062.97;;;5.75;100.00
13767;BME280;47980;48.794;9.176;2024-03-02T04:51:46;97065.47;;;5.72;100.00
13767;BME280;47980;48.794;9.176;2024-03-02T04:54:19;97059.84;;;5.82;100.00
13767;BME280;47980;48.794;9.176;2024-03-02T04:56:51;97060.22;;;5.72;100.00
13767;BME280;47980;48.794;9.176;2024-03-02T04:59:22;97064.56;;;5.68;100.00
13767;BME280;47980;48.794;9.176;2024-03-02T05:01:53;97064.31;;;5.61;100.00
13767;BME280;47980;48.794;9.176;2024-03-02T05:04:25;97065.13;;;5.82;100.00
13767;BME280;47980;48.794;9.176;2024-03-02T05:06:56;97074.25;;;5.85;100.00
13767;BME280;47980;48.794;9.176;2024-03-02T05:09:29;97068.84;;;5.81;100.00
13767;BME280;47980;48.794;9.176;2024-03-02T05:12:01;97074.91;;;5.73;100.00
13767;BME280;47980;48.794;9.176;2024-03-02T05:14:53;97071.78;;;5.79;100.00
13767;BME280;47980;48.794;9.176;2024-03-02T05:17:24;97076.06;;;5.63;100.00
13767;BME280;47980;48.794;9.176;2024-03-02T05:19:56;97072.28;;;5.73;100.00
13767;BME280;47980;48.794;9.176;2024-03-02T05:22:27;97065.47;;;5.72;100.00
13767;BME280;47980;48.794;9.176;2024-03-02T05:25:00;97069.63;;;5.52;100.00
13767;BME280;47980;48.794;9.176;2024-03-02T05:27:32;97069.16;;;5.50;100.00
13767;BME280;47980;48.794;9.176;2024-03-02T05:30:04;97070.06;;;5.54;100.00
13767;BME280;47980;48.794;9.176;2024-03-02T05:32:37;97067.63;;;5.49;100.00
13767;BME280;47980;48.794;9.176;2024-03-02T05:35:09;97072.75;;;5.37;100.00
13767;BME280;47980;48.794;9.176;2024-03-02T05:37:41;97075.88;;;5.30;100.00
13767;BME280;47980;48.794;9.176;2024-03-02T05:40:14;97071.97;;;5.36;100.00
13767;BME280;47980;48.794;9.176;2024-03-02T05:42:46;97067.97;;;5.39;100.00
13767;BME280;47980;48.794;9.176;2024-03-02T05:45:17;97079.66;;;5.50;100.00
13767;BME280;47980;48.794;9.176;2024-03-02T05:47:49;97074.97;;;5.64;100.00
13767;BME280;47980;48.794;9.176;2024-03-02T05:50:20;97077.66;;;5.76;100.00
13767;BME280;47980;48.794;9.176;2024-03-02T05:52:52;97078.41;;;5.86;100.00
13767;BME280;47980;48.794;9.176;2024-03-02T05:55:24;97085.84;;;5.92;100.00
13767;BME280;47980;48.794;9.176;2024-03-02T05:57:56;97085.34;;;5.90;100.00
13767;BME280;47980;48.794;9.176;2024-03-02T06:00:45;97091.53;;;5.94;100.00
13767;BME280;47980;48.794;9.176;2024-03-02T06:03:16;97088.59;;;5.96;100.00
13767;BME280;47980;48.794;9.176;2024-03-02T06:05:48;97093.47;;;6.06;100.00
13767;BME280;47980;48.794;9.176;2024-03-02T06:08:20;97093.44;;;6.15;100.00
13767;BME280;47980;48.794;9.176;2024-03-02T06:10:53;97093.50;;;6.27;100.00
13767;BME280;47980;48.794;9.176;2024-03-02T06:13:24;97092.25;;;6.24;100.00
13767;BME280;47980;48.794;9.176;2024-03-02T06:15:56;97097.34;;;6.30;100.00
13767;BME280;47980;48.794;9.176;2024-03-02T06:18:28;97093.44;;;6.36;100.00
13767;BME280;47980;48.794;9.176;2024-03-02T06:20:59;97094.78;;;6.42;100.00
13767;BME280;47980;48.794;9.176;2024-03-02T06:23:31;97089.63;;;6.45;100.00
13767;BME280;47980;48.794;9.176;2024-03-02T06:26:04;97090.00;;;6.56;100.00
13767;BME280;47980;48.794;9.176;2024-03-02T06:28:35;97089.94;;;6.65;100.00
13767;BME280;47980;48.794;9.176;2024-03-02T06:31:07;97092.50;;;6.73;100.00
13767;BME280;47980;48.794;9.176;2024-03-02T06:33:38;97104.41;;;6.80;98.38
13767;BME280;47980;48.794;9.176;2024-03-02T06:36:10;97107.81;;;6.92;98.38
13767;BME280;47980;48.794;9.176;2024-03-02T06:38:42;97115.44;;;7.06;97.61
13767;BME280;47980;48.794;9.176;2024-03-02T06:41:15;97109.78;;;7.16;96.15
13767;BME280;47980;48.794;9.176;2024-03-02T06:43:46;97110.25;;;7.31;95.08
13767;BME280;47980;48.794;9.176;2024-03-02T06:46:18;97106.50;;;7.32;94.34
13767;BME280;47980;48.794;9.176;2024-03-02T06:48:49;97106.28;;;7.37;92.52
13767;BME280;47980;48.794;9.176;2024-03-02T06:51:21;97110.78;;;7.36;93.50
13767;BME280;47980;48.794;9.176;2024-03-02T06:53:52;97115.09;;;7.41;91.86
13767;BME280;47980;48.794;9.176;2024-03-02T06:56:25;97115.75;;;7.50;92.27
13767;BME280;47980;48.794;9.176;2024-03-02T06:58:56;97122.38;;;7.56;90.38
13767;BME280;47980;48.794;9.176;2024-03-02T07:01:28;97123.91;;;7.69;89.65
13767;BME280;47980;48.794;9.176;2024-03-02T07:03:59;97119.72;;;7.68;90.03
13767;BME280;47980;48.794;9.176;2024-03-02T07:06:31;97116.66;;;7.79;88.11
13767;BME280;47980;48.794;9.176;2024-03-02T07:09:02;97112.25;;;7.95;88.62
13767;BME280;47980;48.794;9.176;2024-03-02T07:11:36;97113.25;;;8.03;87.75
13767;BME280;47980;48.794;9.176;2024-03-02T07:14:08;97115.53;;;8.04;85.84
13767;BME280;47980;48.794;9.176;2024-03-02T07:16:39;97117.41;;;8.04;85.61
13767;BME280;47980;48.794;9.176;2024-03-02T07:19:11;97121.34;;;8.22;84.78
13767;BME280;47980;48.794;9.176;2024-03-02T07:21:42;97114.84;;;8.44;83.63
13767;BME280;47980;48.794;9.176;2024-03-02T07:24:14;97122.53;;;8.49;82.70
13767;BME280;47980;48.794;9.176;2024-03-02T07:26:47;97120.75;;;8.53;82.05
13767;BME280;47980;48.794;9.176;2024-03-02T07:29:19;97116.72;;;8.43;81.24
13767;BME280;47980;48.794;9.176;2024-03-02T07:31:50;97118.75;;;8.62;82.15
13767;BME280;47980;48.794;9.176;2024-03-02T07:34:22;97125.56;;;8.63;80.29
13767;BME280;47980;48.794;9.176;2024-03-02T07:36:53;97115.88;;;8.96;79.93
13767;BME280;47980;48.794;9.176;2024-03-02T07:39:25;97119.34;;;8.84;78.78
13767;BME280;47980;48.794;9.176;2024-03-02T07:41:59;97122.34;;;8.82;80.14
13767;BME280;47980;48.794;9.176;2024-03-02T07:44:31;97120.56;;;8.86;80.20
13767;BME280;47980;48.794;9.176;2024-03-02T07:47:03;97117.63;;;8.76;79.12
13767;BME280;47980;48.794;9.176;2024-03-02T07:49:34;97126.22;;;8.73;80.08
13767;BME280;47980;48.794;9.176;2024-03-02T07:52:06;97125.34;;;8.68;79.67
13767;BME280;47980;48.794;9.176;2024-03-02T07:54:37;97123.50;;;8.85;80.37
13767;BME280;47980;48.794;9.176;2024-03-02T07:57:10;97131.78;;;8.83;78.60
13767;BME280;47980;48.794;9.176;2024-03-02T07:59:42;97130.50;;;8.77;79.09
13767;BME280;47980;48.794;9.176;2024-03-02T08:02:14;97131.44;;;8.85;78.88
13767;BME280;47980;48.794;9.176;2024-03-02T08:04:45;97131.91;;;8.87;79.15
13767;BME280;47980;48.794;9.176;2024-03-02T08:07:17;97131.31;;;8.94;78.97
13767;BME280;47980;48.794;9.176;2024-03-02T08:09:49;97126.50;;;8.83;78.47
13767;BME280;47980;48.794;9.176;2024-03-02T08:12:21;97120.56;;;8.86;78.94
13767;BME280;47980;48.794;9.176;2024-03-02T08:14:53;97115.63;;;9.01;78.20
13767;BME280;47980;48.794;9.176;2024-03-02T08:17:25;97117.06;;;8.98;77.51
13767;BME280;47980;48.794;9.176;2024-03-02T08:19:57;97118.88;;;9.10;76.54
13767;BME280;47980;48.794;9.176;2024-03-02T08:22:29;97117.34;;;9.09;76.80
13767;BME280;47980;48.794;9.176;2024-03-02T08:25:00;97113.88;;;9.21;75.97
13767;BME280;47980;48.794;9.176;2024-03-02T08:27:34;97109.88;;;9.27;76.51
13767;BME280;47980;48.794;9.176;2024-03-02T08:30:06;97105.44;;;9.47;74.75
13767;BME280;47980;48.794;9.176;2024-03-02T08:32:38;97111.06;;;9.61;73.72
13767;BME280;47980;48.794;9.176;2024-03-02T08:35:10;97113.88;;;9.68;75.08
13767;BME280;47980;48.794;9.176;2024-03-02T08:37:42;97109.97;;;9.78;73.11
13767;BME280;47980;48.794;9.176;2024-03-02T08:40:14;97110.38;;;9.80;73.40
13767;BME280;47980;48.794;9.176;2024-03-02T08:42:47;97115.06;;;9.86;72.75
13767;BME280;47980;48.794;9.176;2024-03-02T08:45:19;97112.00;;;10.20;71.56
13767;BME280;47980;48.794;9.176;2024-03-02T08:47:51;97114.38;;;10.41;71.34
13767;BME280;47980;48.794;9.176;2024-03-02T08:50:22;97102.31;;;10.63;69.49
13767;BME280;47980;48.794;9.176;2024-03-02T08:52:54;97103.88;;;10.83;67.70
13767;BME280;47980;48.794;9.176;2024-03-02T08:55:25;97106.97;;;11.08;67.32
13767;BME280;47980;48.794;9.176;2024-03-02T08:57:58;97105.16;;;10.93;68.21
13767;BME280;47980;48.794;9.176;2024-03-02T09:00:30;97109.88;;;10.80;68.78
13767;BME280;47980;48.794;9.176;2024-03-02T09:03:01;97112.16;;;10.81;68.21
13767;BME280;47980;48.794;9.176;2024-03-02T09:05:33;97113.88;;;11.13;68.24
13767;BME280;47980;48.794;9.176;2024-03-02T09:08:05;97110.66;;;11.03;67.93
13767;BME280;47980;48.794;9.176;2024-03-02T09:10:36;97111.41;;;11.23;67.80
13767;BME280;47980;48.794;9.176;2024-03-02T09:13:10;97099.78;;;11.31;66.65
13767;BME280;47980;48.794;9.176;2024-03-02T09:15:41;97115.78;;;11.58;65.90
13767;BME280;47980;48.794;9.176;2024-03-02T09:18:14;97108.09;;;11.76;63.16
13767;BME280;47980;48.794;9.176;2024-03-02T09:20:46;97116.25;;;11.87;62.90
13767;BME280;47980;48.794;9.176;2024-03-02T09:23:17;97109.84;;;11.88;61.59
13767;BME280;47980;48.794;9.176;2024-03-02T09:25:49;97110.34;;;11.74;63.11
13767;BME280;47980;48.794;9.176;2024-03-02T09:28:22;97104.78;;;11.82;63.59
13767;BME280;47980;48.794;9.176;2024-03-02T09:30:53;97101.16;;;11.94;62.48
13767;BME280;47980;48.794;9.176;2024-03-02T09:33:24;97100.06;;;11.95;61.21
13767;BME280;47980;48.794;9.176;2024-03-02T09:35:57;97095.97;;;12.28;61.88
13767;BME280;47980;48.794;9.176;2024-03-02T09:38:28;97092.16;;;12.29;60.69
13767;BME280;47980;48.794;9.176;2024-03-02T09:41:00;97098.16;;;12.22;61.11
13767;BME280;47980;48.794;9.176;2024-03-02T09:43:33;97101.19;;;12.21;62.80
13767;BME280;47980;48.794;9.176;2024-03-02T09:46:05;97084.00;;;12.45;60.27
13767;BME280;47980;48.794;9.176;2024-03-02T09:48:37;97077.25;;;12.51;59.82
13767;BME280;47980;48.794;9.176;2024-03-02T09:51:10;97081.25;;;12.68;59.74
13767;BME280;47980;48.794;9.176;2024-03-02T09:53:41;97073.19;;;12.61;58.81
13767;BME280;47980;48.794;9.176;2024-03-02T09:56:13;97077.16;;;12.77;57.90
13767;BME280;47980;48.794;9.176;2024-03-02T09:58:47;97078.97;;;12.70;58.02
13767;BME280;47980;48.794;9.176;2024-03-02T10:01:18;97074.03;;;12.68;59.35
13767;BME280;47980;48.794;9.176;2024-03-02T10:03:50;97071.03;;;12.73;58.53
13767;BME280;47980;48.794;9.176;2024-03-02T10:06:23;97066.50;;;12.77;58.49
13767;BME280;47980;48.794;9.176;2024-03-02T10:08:55;97070.97;;;12.36;58.64
13767;BME280;47980;48.794;9.176;2024-03-02T10:11:28;97067.19;;;12.67;58.76
13767;BME280;47980;48.794;9.176;2024-03-02T10:14:05;97064.28;;;12.46;60.12
13767;BME280;47980;48.794;9.176;2024-03-02T10:16:40;97072.59;;;12.78;61.16
13767;BME280;47980;48.794;9.176;2024-03-02T10:19:18;97061.59;;;12.80;59.00
13767;BME280;47980;48.794;9.176;2024-03-02T10:21:51;97061.53;;;12.72;58.51
13767;BME280;47980;48.794;9.176;2024-03-02T10:24:24;97060.56;;;12.91;60.07
13767;BME280;47980;48.794;9.176;2024-03-02T10:26:55;97060.75;;;12.72;59.60
13767;BME280;47980;48.794;9.176;2024-03-02T10:29:30;97058.03;;;13.06;58.33
13767;BME280;47980;48.794;9.176;2024-03-02T10:32:02;97055.72;;;13.00;58.95
13767;BME280;47980;48.794;9.176;2024-03-02T10:34:35;97064.69;;;13.22;58.97
13767;BME280;47980;48.794;9.176;2024-03-02T10:37:07;97052.75;;;13.54;57.74
13767;BME280;47980;48.794;9.176;2024-03-02T10:39:39;97045.53;;;13.54;58.51
13767;BME280;47980;48.794;9.176;2024-03-02T10:42:12;97050.50;;;13.56;57.64
13767;BME280;47980;48.794;9.176;2024-03-02T10:44:47;97054.66;;;13.53;56.26
13767;BME280;47980;48.794;9.176;2024-03-02T10:47:20;97051.25;;;13.53;57.01
13767;BME280;47980;48.794;9.176;2024-03-02T10:49:54;97043.78;;;13.72;57.18
13767;BME280;47980;48.794;9.176;2024-03-02T10:52:27;97041.50;;;13.75;56.71
13767;BME280;47980;48.794;9.176;2024-03-02T10:54:59;97031.16;;;13.66;57.10
13767;BME280;47980;48.794;9.176;2024-03-02T10:57:33;97021.09;;;13.41;56.96
13767;BME280;47980;48.794;9.176;2024-03-02T11:00:12;97029.69;;;13.76;57.33
13767;BME280;47980;48.794;9.176;2024-03-02T11:02:50;97029.84;;;14.01;57.18
13767;BME280;47980;48.794;9.176;2024-03-02T11:05:26;97013.56;;;14.20;56.61
13767;BME280;47980;48.794;9.176;2024-03-02T11:08:02;97020.06;;;14.26;56.60
13767;BME280;47980;48.794;9.176;2024-03-02T11:10:36;97011.59;;;14.06;56.30
13767;BME280;47980;48.794;9.176;2024-03-02T11:13:09;97015.34;;;13.94;57.80
13767;BME280;47980;48.794;9.176;2024-03-02T11:15:44;97002.03;;;13.98;56.77
13767;BME280;47980;48.794;9.176;2024-03-02T11:18:16;97007.03;;;14.10;55.76
13767;BME280;47980;48.794;9.176;2024-03-02T11:20:47;97005.50;;;14.09;56.78
13767;BME280;47980;48.794;9.176;2024-03-02T11:23:31;96996.78;;;14.19;56.16
13767;BME280;47980;48.794;9.176;2024-03-02T11:26:19;96993.41;;;14.33;54.91
13767;BME280;47980;48.794;9.176;2024-03-02T11:28:51;96988.47;;;14.42;54.61
13767;BME280;47980;48.794;9.176;2024-03-02T11:31:58;96985.13;;;14.56;54.10
13767;BME280;47980;48.794;9.176;2024-03-02T11:34:31;96971.69;;;14.28;53.79
13767;BME280;47980;48.794;9.176;2024-03-02T11:37:03;96966.03;;;14.54;53.08
13767;BME280;47980;48.794;9.176;2024-03-02T11:39:35;96969.13;;;14.71;53.46
13767;BME280;47980;48.794;9.176;2024-03-02T11:42:10;96965.34;;;14.82;53.19
13767;BME280;47980;48.794;9.176;2024-03-02T11:44:45;96962.63;;;14.54;54.00
13767;BME280;47980;48.794;9.176;2024-03-02T11:47:18;96962.66;;;14.68;53.65
13767;BME280;47980;48.794;9.176;2024-03-02T11:49:51;96959.59;;;14.87;53.37
13767;BME280;47980;48.794;9.176;2024-03-02T11:52:23;96953.50;;;14.83;52.80
13767;BME280;47980;48.794;9.176;2024-03-02T11:54:55;96946.25;;;15.09;53.08
13767;BME280;47980;48.794;9.176;2024-03-02T11:57:27;96944.34;;;15.16;51.61
13767;BME280;47980;48.794;9.176;2024-03-02T12:00:02;96944.34;;;14.84;52.51
13767;BME280;47980;48.794;9.176;2024-03-02T12:02:35;96937.09;;;14.96;52.23
13767;BME280;47980;48.794;9.176;2024-03-02T12:05:07;96926.41;;;15.03;53.09
13767;BME280;47980;48.794;9.176;2024-03-02T12:07:40;96930.63;;;14.86;53.21
13767;BME280;47980;48.794;9.176;2024-03-02T12:10:12;96927.56;;;15.02;52.20
13767;BME280;47980;48.794;9.176;2024-03-02T12:12:43;96919.19;;;14.92;52.06
13767;BME280;47980;48.794;9.176;2024-03-02T12:15:15;96919.16;;;15.14;52.46
13767;BME280;47980;48.794;9.176;2024-03-02T12:17:48;96914.94;;;15.27;51.58
13767;BME280;47980;48.794;9.176;2024-03-02T12:20:19;96916.81;;;15.41;50.20
13767;BME280;47980;48.794;9.176;2024-03-02T12:22:51;96915.63;;;15.60;50.11
13767;BME280;47980;48.794;9.176;2024-03-02T12:25:24;96921.00;;;15.42;49.58
13767;BME280;47980;48.794;9.176;2024-03-02T12:27:58;96910.28;;;15.67;49.33
13767;BME280;47980;48.794;9.176;2024-03-02T12:30:31;96900.31;;;15.82;48.95
13767;BME280;47980;48.794;9.176;2024-03-02T12:33:05;96904.97;;;15.49;49.38
13767;BME280;47980;48.794;9.176;2024-03-02T12:35:37;96900.78;;;15.48;50.30
13767;BME280;47980;48.794;9.176;2024-03-02T12:38:09;96888.84;;;15.78;48.49
13767;BME280;47980;48.794;9.176;2024-03-02T12:40:42;96886.84;;;16.00;47.47
13767;BME280;47980;48.794;9.176;2024-03-02T12:43:13;96876.88;;;16.04;47.61
13767;BME280;47980;48.794;9.176;2024-03-02T12:45:45;96877.22;;;16.17;47.42
13767;BME280;47980;48.794;9.176;2024-03-02T12:48:18;96883.06;;;15.94;48.38
13767;BME280;47980;48.794;9.176;2024-03-02T12:50:49;96884.91;;;16.04;47.54
13767;BME280;47980;48.794;9.176;2024-03-02T12:53:21;96876.66;;;15.73;47.53
13767;BME280;47980;48.794;9.176;2024-03-02T12:55:53;96876.97;;;15.89;47.13
13767;BME280;47980;48.794;9.176;2024-03-02T12:58:26;96878.25;;;15.46;47.37
13767;BME280;47980;48.794;9.176;2024-03-02T13:01:06;96878.06;;;15.99;47.84
13767;BME280;47980;48.794;9.176;2024-03-02T13:03:41;96875.41;;;15.96;48.67
13767;BME280;47980;48.794;9.176;2024-03-02T13:06:12;96875.44;;;15.88;48.66
13767;BME280;47980;48.794;9.176;2024-03-02T13:08:45;96872.38;;;15.90;48.09
13767;BME280;47980;48.794;9.176;2024-03-02T13:11:17;96862.56;;;15.66;47.51
13767;BME280;47980;48.794;9.176;2024-03-02T13:13:48;96868.31;;;15.50;48.48
13767;BME280;47980;48.794;9.176;2024-03-02T13:16:20;96860.16;;;15.89;47.46
13767;BME280;47980;48.794;9.176;2024-03-02T13:18:53;96855.97;;;15.84;47.05
13767;BME280;47980;48.794;9.176;2024-03-02T13:21:24;96854.78;;;15.96;48.98
13767;BME280;47980;48.794;9.176;2024-03-02T13:23:56;96849.13;;;15.83;47.67
13767;BME280;47980;48.794;9.176;2024-03-02T13:26:28;96857.88;;;15.87;48.45
13767;BME280;47980;48.794;9.176;2024-03-02T13:28:59;96855.16;;;15.95;47.56
13767;BME280;47980;48.794;9.176;2024-03-02T13:31:31;96845.88;;;16.17;46.87
13767;BME280;47980;48.794;9.176;2024-03-02T13:34:04;96843.91;;;16.21;46.54